sensor_id;sensor_type;location;lat;lon;timestamp;temperature;humidity
5639;DHT22;2841;44.526;11.360;2023-02-01T00:01:49;6.00;71.40
5639;DHT22;2841;44.526;11.360;2023-02-01T00:04:15;6.00;71.20
5639;DHT22;2841;44.526;11.360;2023-02-01T00:06:42;6.10;71.10
5639;DHT22;2841;44.526;11.360;2023-02-01T00:09:09;6.10;70.80
5639;DHT22;2841;44.526;11.360;2023-02-01T00:11:35;6.20;70.80
5639;DHT22;2841;44.526;11.360;2023-02-01T00:14:02;6.20;70.70
5639;DHT22;2841;44.526;11.360;2023-02-01T00:16:29;6.20;70.60
5639;DHT22;2841;44.526;11.360;2023-02-01T00:18:58;6.20;70.60
5639;DHT22;2841;44.526;11.360;2023-02-01T00:21:26;6.20;70.50
5639;DHT22;2841;44.526;11.360;2023-02-01T00:23:52;6.30;70.50
5639;DHT22;2841;44.526;11.360;2023-02-01T00:26:20;6.20;70.30
5639;DHT22;2841;44.526;11.360;2023-02-01T00:28:49;6.10;70.10
5639;DHT22;2841;44.526;11.360;2023-02-01T00:31:15;5.90;70.10
5639;DHT22;2841;44.526;11.360;2023-02-01T00:33:42;5.80;70.30
5639;DHT22;2841;44.526;11.360;2023-02-01T00:36:10;5.80;70.50
5639;DHT22;2841;44.526;11.360;2023-02-01T00:38:37;5.90;70.60
5639;DHT22;2841;44.526;11.360;2023-02-01T00:41:05;5.80;70.40
5639;DHT22;2841;44.526;11.360;2023-02-01T00:43:32;5.80;70.30
5639;DHT22;2841;44.526;11.360;2023-02-01T00:45:59;5.80;70.50
5639;DHT22;2841;44.526;11.360;2023-02-01T00:48:26;5.90;70.40
5639;DHT22;2841;44.526;11.360;2023-02-01T00:50:53;6.00;70.20
5639;DHT22;2841;44.526;11.360;2023-02-01T00:53:21;6.10;70.00
5639;DHT22;2841;44.526;11.360;2023-02-01T00:55:48;6.20;69.90
5639;DHT22;2841;44.526;11.360;2023-02-01T00:58:15;6.10;69.60
5639;DHT22;2841;44.526;11.360;2023-02-01T01:00:41;6.00;69.40
5639;DHT22;2841;44.526;11.360;2023-02-01T01:03:08;5.80;69.40
5639;DHT22;2841;44.526;11.360;2023-02-01T01:05:44;5.70;69.60
5639;DHT22;2841;44.526;11.360;2023-02-01T01:08:10;5.50;69.60
5639;DHT22;2841;44.526;11.360;2023-02-01T01:10:38;5.40;69.70
5639;DHT22;2841;44.526;11.360;2023-02-01T01:13:05;5.40;70.50
5639;DHT22;2841;44.526;11.360;2023-02-01T01:15:35;5.30;69.80
5639;DHT22;2841;44.526;11.360;2023-02-01T01:18:02;5.20;69.80
5639;DHT22;2841;44.526;11.360;2023-02-01T01:20:29;5.00;69.60
5639;DHT22;2841;44.526;11.360;2023-02-01T01:22:56;4.90;69.70
5639;DHT22;2841;44.526;11.360;2023-02-01T01:25:23;4.80;69.70
5639;DHT22;2841;44.526;11.360;2023-02-01T01:27:51;4.80;70.00
5639;DHT22;2841;44.526;11.360;2023-02-01T01:30:18;4.70;69.90
5639;DHT22;2841;44.526;11.360;2023-02-01T01:32:44;4.60;69.70
5639;DHT22;2841;44.526;11.360;2023-02-01T01:35:11;4.60;69.80
5639;DHT22;2841;44.526;11.360;2023-02-01T01:37:38;4.50;69.80
5639;DHT22;2841;44.526;11.360;2023-02-01T01:40:05;4.40;69.80
5639;DHT22;2841;44.526;11.360;2023-02-01T01:42:36;4.30;69.90
5639;DHT22;2841;44.526;11.360;2023-02-01T01:45:05;4.30;70.00
5639;DHT22;2841;44.526;11.360;2023-02-01T01:47:33;4.50;70.40
5639;DHT22;2841;44.526;11.360;2023-02-01T01:50:02;4.80;70.40
5639;DHT22;2841;44.526;11.360;2023-02-01T01:52:29;4.90;70.10
5639;DHT22;2841;44.526;11.360;2023-02-01T01:54:56;5.00;70.00
5639;DHT22;2841;44.526;11.360;2023-02-01T01:57:24;5.20;69.90
5639;DHT22;2841;44.526;11.360;2023-02-01T01:59:53;5.40;69.80
5639;DHT22;2841;44.526;11.360;2023-02-01T02:02:23;5.50;69.50
5639;DHT22;2841;44.526;11.360;2023-02-01T02:04:50;5.50;69.30
5639;DHT22;2841;44.526;11.360;2023-02-01T02:07:17;5.60;69.30
5639;DHT22;2841;44.526;11.360;2023-02-01T02:09:45;5.60;69.30
5639;DHT22;2841;44.526;11.360;2023-02-01T02:12:12;5.70;69.20
5639;DHT22;2841;44.526;11.360;2023-02-01T02:14:39;5.70;69.20
5639;DHT22;2841;44.526;11.360;2023-02-01T02:17:19;5.80;69.30
5639;DHT22;2841;44.526;11.360;2023-02-01T02:20:11;5.80;69.20
5639;DHT22;2841;44.526;11.360;2023-02-01T02:25:27;5.90;69.00
5639;DHT22;2841;44.526;11.360;2023-02-01T02:27:58;5.90;69.00
5639;DHT22;2841;44.526;11.360;2023-02-01T02:30:35;5.90;68.90
5639;DHT22;2841;44.526;11.360;2023-02-01T02:35:54;5.90;68.90
5639;DHT22;2841;44.526;11.360;2023-02-01T02:38:30;5.90;69.00
5639;DHT22;2841;44.526;11.360;2023-02-01T02:41:01;5.90;68.80
5639;DHT22;2841;44.526;11.360;2023-02-01T02:43:31;5.90;68.90
5639;DHT22;2841;44.526;11.360;2023-02-01T02:46:19;5.80;68.70
5639;DHT22;2841;44.526;11.360;2023-02-01T02:49:05;5.70;68.60
5639;DHT22;2841;44.526;11.360;2023-02-01T02:51:37;5.70;68.70
5639;DHT22;2841;44.526;11.360;2023-02-01T02:54:22;5.70;68.90
5639;DHT22;2841;44.526;11.360;2023-02-01T02:57:09;5.80;69.00
5639;DHT22;2841;44.526;11.360;2023-02-01T02:59:54;5.80;68.80
5639;DHT22;2841;44.526;11.360;2023-02-01T03:02:39;5.70;68.60
5639;DHT22;2841;44.526;11.360;2023-02-01T03:05:24;5.70;68.60
5639;DHT22;2841;44.526;11.360;2023-02-01T03:08:01;5.60;68.60
5639;DHT22;2841;44.526;11.360;2023-02-01T03:10:32;5.60;68.70
5639;DHT22;2841;44.526;11.360;2023-02-01T03:13:00;5.70;68.70
5639;DHT22;2841;44.526;11.360;2023-02-01T03:15:30;5.70;68.60
5639;DHT22;2841;44.526;11.360;2023-02-01T03:17:58;5.70;68.50
5639;DHT22;2841;44.526;11.360;2023-02-01T03:20:28;5.70;68.50
5639;DHT22;2841;44.526;11.360;2023-02-01T03:22:55;5.70;69.10
5639;DHT22;2841;44.526;11.360;2023-02-01T03:25:25;5.70;68.40
5639;DHT22;2841;44.526;11.360;2023-02-01T03:27:53;5.70;68.40
5639;DHT22;2841;44.526;11.360;2023-02-01T03:30:22;5.70;68.30
5639;DHT22;2841;44.526;11.360;2023-02-01T03:32:50;5.60;68.20
5639;DHT22;2841;44.526;11.360;2023-02-01T03:35:29;5.50;68.90
5639;DHT22;2841;44.526;11.360;2023-02-01T03:38:01;5.40;68.20
5639;DHT22;2841;44.526;11.360;2023-02-01T03:40:30;5.20;68.20
5639;DHT22;2841;44.526;11.360;2023-02-01T03:42:59;5.10;68.30
5639;DHT22;2841;44.526;11.360;2023-02-01T03:45:28;4.90;68.20
5639;DHT22;2841;44.526;11.360;2023-02-01T03:47:58;4.60;68.10
5639;DHT22;2841;44.526;11.360;2023-02-01T03:50:26;4.40;68.30
5639;DHT22;2841;44.526;11.360;2023-02-01T03:52:55;4.20;68.40
5639;DHT22;2841;44.526;11.360;2023-02-01T03:55:23;4.00;68.50
5639;DHT22;2841;44.526;11.360;2023-02-01T03:57:54;3.90;68.70
5639;DHT22;2841;44.526;11.360;2023-02-01T04:00:24;3.80;68.80
5639;DHT22;2841;44.526;11.360;2023-02-01T04:02:51;3.80;68.90
5639;DHT22;2841;44.526;11.360;2023-02-01T04:05:18;3.80;68.90
5639;DHT22;2841;44.526;11.360;2023-02-01T04:07:45;3.80;68.90
5639;DHT22;2841;44.526;11.360;2023-02-01T04:10:12;3.70;68.80
5639;DHT22;2841;44.526;11.360;2023-02-01T04:12:39;3.60;68.70
5639;DHT22;2841;44.526;11.360;2023-02-01T04:15:08;3.60;68.80
5639;DHT22;2841;44.526;11.360;2023-02-01T04:17:35;2.60;67.80
5639;DHT22;2841;44.526;11.360;2023-02-01T04:20:02;3.40;68.70
5639;DHT22;2841;44.526;11.360;2023-02-01T04:22:30;3.20;68.80
5639;DHT22;2841;44.526;11.360;2023-02-01T04:24:56;3.20;68.90
5639;DHT22;2841;44.526;11.360;2023-02-01T04:27:23;3.20;68.90
5639;DHT22;2841;44.526;11.360;2023-02-01T04:29:50;3.10;68.90
5639;DHT22;2841;44.526;11.360;2023-02-01T04:32:18;3.00;68.80
5639;DHT22;2841;44.526;11.360;2023-02-01T04:34:46;2.90;68.90
5639;DHT22;2841;44.526;11.360;2023-02-01T04:37:12;2.80;68.90
5639;DHT22;2841;44.526;11.360;2023-02-01T04:39:39;2.80;69.10
5639;DHT22;2841;44.526;11.360;2023-02-01T04:42:06;2.80;69.20
5639;DHT22;2841;44.526;11.360;2023-02-01T04:44:34;2.80;69.20
5639;DHT22;2841;44.526;11.360;2023-02-01T04:47:02;2.80;69.30
5639;DHT22;2841;44.526;11.360;2023-02-01T04:49:30;2.80;69.20
5639;DHT22;2841;44.526;11.360;2023-02-01T04:51:57;2.90;69.40
5639;DHT22;2841;44.526;11.360;2023-02-01T04:54:24;3.00;69.60
5639;DHT22;2841;44.526;11.360;2023-02-01T04:56:51;3.10;69.60
5639;DHT22;2841;44.526;11.360;2023-02-01T04:59:17;3.20;69.40
5639;DHT22;2841;44.526;11.360;2023-02-01T05:01:44;3.20;69.20
5639;DHT22;2841;44.526;11.360;2023-02-01T05:04:11;3.20;69.20
5639;DHT22;2841;44.526;11.360;2023-02-01T05:06:39;3.10;69.10
5639;DHT22;2841;44.526;11.360;2023-02-01T05:09:06;3.10;69.20
5639;DHT22;2841;44.526;11.360;2023-02-01T05:11:33;3.10;69.40
5639;DHT22;2841;44.526;11.360;2023-02-01T05:14:19;3.10;69.40
5639;DHT22;2841;44.526;11.360;2023-02-01T05:16:46;3.10;69.40
5639;DHT22;2841;44.526;11.360;2023-02-01T05:19:13;3.10;69.50
5639;DHT22;2841;44.526;11.360;2023-02-01T05:21:41;3.00;69.50
5639;DHT22;2841;44.526;11.360;2023-02-01T05:24:08;3.10;69.70
5639;DHT22;2841;44.526;11.360;2023-02-01T05:26:40;3.10;69.70
5639;DHT22;2841;44.526;11.360;2023-02-01T05:29:07;3.10;69.60
5639;DHT22;2841;44.526;11.360;2023-02-01T05:31:34;3.10;69.60
5639;DHT22;2841;44.526;11.360;2023-02-01T05:34:01;3.00;69.60
5639;DHT22;2841;44.526;11.360;2023-02-01T05:36:28;3.00;69.70
5639;DHT22;2841;44.526;11.360;2023-02-01T05:38:56;2.90;69.70
5639;DHT22;2841;44.526;11.360;2023-02-01T05:41:23;2.90;69.80
5639;DHT22;2841;44.526;11.360;2023-02-01T05:43:50;2.90;69.80
5639;DHT22;2841;44.526;11.360;2023-02-01T05:46:16;2.90;69.90
5639;DHT22;2841;44.526;11.360;2023-02-01T05:48:43;2.80;69.90
5639;DHT22;2841;44.526;11.360;2023-02-01T05:51:10;2.80;70.10
5639;DHT22;2841;44.526;11.360;2023-02-01T05:53:37;2.80;70.10
5639;DHT22;2841;44.526;11.360;2023-02-01T05:56:05;2.80;70.10
5639;DHT22;2841;44.526;11.360;2023-02-01T05:58:33;2.80;70.20
5639;DHT22;2841;44.526;11.360;2023-02-01T06:00:59;2.80;70.20
5639;DHT22;2841;44.526;11.360;2023-02-01T06:03:26;2.80;70.30
5639;DHT22;2841;44.526;11.360;2023-02-01T06:05:53;2.80;70.30
5639;DHT22;2841;44.526;11.360;2023-02-01T06:08:20;2.80;70.30
5639;DHT22;2841;44.526;11.360;2023-02-01T06:10:47;2.80;70.40
5639;DHT22;2841;44.526;11.360;2023-02-01T06:13:15;2.80;70.40
5639;DHT22;2841;44.526;11.360;2023-02-01T06:15:41;2.90;70.60
5639;DHT22;2841;44.526;11.360;2023-02-01T06:18:09;2.90;70.50
5639;DHT22;2841;44.526;11.360;2023-02-01T06:20:36;3.00;70.50
5639;DHT22;2841;44.526;11.360;2023-02-01T06:23:02;3.00;70.50
5639;DHT22;2841;44.526;11.360;2023-02-01T06:25:30;3.00;70.50
5639;DHT22;2841;44.526;11.360;2023-02-01T06:27:59;3.00;70.50
5639;DHT22;2841;44.526;11.360;2023-02-01T06:30:27;3.00;70.60
5639;DHT22;2841;44.526;11.360;2023-02-01T06:32:55;3.10;70.80
5639;DHT22;2841;44.526;11.360;2023-02-01T06:35:22;3.20;70.90
5639;DHT22;2841;44.526;11.360;2023-02-01T06:37:49;3.20;70.80
5639;DHT22;2841;44.526;11.360;2023-02-01T06:40:16;3.20;70.80
5639;DHT22;2841;44.526;11.360;2023-02-01T06:42:42;3.20;70.70
5639;DHT22;2841;44.526;11.360;2023-02-01T06:45:09;3.20;70.80
5639;DHT22;2841;44.526;11.360;2023-02-01T06:47:37;3.30;71.00
5639;DHT22;2841;44.526;11.360;2023-02-01T06:50:05;3.30;71.00
5639;DHT22;2841;44.526;11.360;2023-02-01T06:52:32;3.30;71.00
5639;DHT22;2841;44.526;11.360;2023-02-01T06:54:58;3.20;71.00
5639;DHT22;2841;44.526;11.360;2023-02-01T06:57:25;3.30;71.20
5639;DHT22;2841;44.526;11.360;2023-02-01T06:59:55;3.30;71.20
5639;DHT22;2841;44.526;11.360;2023-02-01T07:02:22;3.40;71.50
5639;DHT22;2841;44.526;11.360;2023-02-01T07:04:50;3.50;71.30
5639;DHT22;2841;44.526;11.360;2023-02-01T07:07:17;3.50;71.20
5639;DHT22;2841;44.526;11.360;2023-02-01T07:09:45;3.60;71.30
5639;DHT22;2841;44.526;11.360;2023-02-01T07:12:12;3.60;71.30
5639;DHT22;2841;44.526;11.360;2023-02-01T07:14:38;3.60;71.40
5639;DHT22;2841;44.526;11.360;2023-02-01T07:17:05;3.70;71.50
5639;DHT22;2841;44.526;11.360;2023-02-01T07:19:32;3.80;71.60
5639;DHT22;2841;44.526;11.360;2023-02-01T07:22:00;3.80;71.40
5639;DHT22;2841;44.526;11.360;2023-02-01T07:24:27;3.80;71.40
5639;DHT22;2841;44.526;11.360;2023-02-01T07:26:54;3.90;71.60
5639;DHT22;2841;44.526;11.360;2023-02-01T07:29:21;3.90;71.50
5639;DHT22;2841;44.526;11.360;2023-02-01T07:31:48;4.00;71.60
5639;DHT22;2841;44.526;11.360;2023-02-01T07:34:15;4.10;71.70
5639;DHT22;2841;44.526;11.360;2023-02-01T07:36:41;4.20;71.80
5639;DHT22;2841;44.526;11.360;2023-02-01T07:39:09;4.30;71.80
5639;DHT22;2841;44.526;11.360;2023-02-01T07:41:36;4.40;71.80
5639;DHT22;2841;44.526;11.360;2023-02-01T07:44:03;4.50;71.80
5639;DHT22;2841;44.526;11.360;2023-02-01T07:46:30;4.60;71.80
5639;DHT22;2841;44.526;11.360;2023-02-01T07:48:56;4.80;71.80
5639;DHT22;2841;44.526;11.360;2023-02-01T07:51:23;4.90;72.40
5639;DHT22;2841;44.526;11.360;2023-02-01T07:53:50;5.10;71.80
5639;DHT22;2841;44.526;11.360;2023-02-01T07:56:19;5.30;71.70
5639;DHT22;2841;44.526;11.360;2023-02-01T07:58:47;5.40;71.60
5639;DHT22;2841;44.526;11.360;2023-02-01T08:01:14;5.60;71.70
5639;DHT22;2841;44.526;11.360;2023-02-01T08:03:46;5.80;71.70
5639;DHT22;2841;44.526;11.360;2023-02-01T08:06:13;5.90;71.60
5639;DHT22;2841;44.526;11.360;2023-02-01T08:08:39;6.00;71.50
5639;DHT22;2841;44.526;11.360;2023-02-01T08:11:07;6.20;71.70
5639;DHT22;2841;44.526;11.360;2023-02-01T08:13:35;6.30;71.70
5639;DHT22;2841;44.526;11.360;2023-02-01T08:16:03;6.50;71.80
5639;DHT22;2841;44.526;11.360;2023-02-01T08:18:30;6.70;71.70
5639;DHT22;2841;44.526;11.360;2023-02-01T08:20:57;6.90;71.70
5639;DHT22;2841;44.526;11.360;2023-02-01T08:23:29;7.10;71.80
5639;DHT22;2841;44.526;11.360;2023-02-01T08:26:03;7.20;71.70
5639;DHT22;2841;44.526;11.360;2023-02-01T08:28:30;7.30;71.70
5639;DHT22;2841;44.526;11.360;2023-02-01T08:30:58;7.40;71.70
5639;DHT22;2841;44.526;11.360;2023-02-01T08:33:25;7.50;71.70
5639;DHT22;2841;44.526;11.360;2023-02-01T08:35:51;7.50;71.70
5639;DHT22;2841;44.526;11.360;2023-02-01T08:38:18;7.50;71.70
5639;DHT22;2841;44.526;11.360;2023-02-01T08:40:45;7.60;72.00
5639;DHT22;2841;44.526;11.360;2023-02-01T08:43:12;7.60;71.90
5639;DHT22;2841;44.526;11.360;2023-02-01T08:45:39;7.70;72.00
5639;DHT22;2841;44.526;11.360;2023-02-01T08:48:07;7.80;72.00
5639;DHT22;2841;44.526;11.360;2023-02-01T08:50:34;7.90;71.90
5639;DHT22;2841;44.526;11.360;2023-02-01T08:53:01;8.00;72.00
5639;DHT22;2841;44.526;11.360;2023-02-01T08:55:27;8.00;71.80
5639;DHT22;2841;44.526;11.360;2023-02-01T08:57:55;8.10;71.90
5639;DHT22;2841;44.526;11.360;2023-02-01T09:00:22;8.10;71.80
5639;DHT22;2841;44.526;11.360;2023-02-01T09:02:48;8.10;71.90
5639;DHT22;2841;44.526;11.360;2023-02-01T09:05:16;8.00;71.80
5639;DHT22;2841;44.526;11.360;2023-02-01T09:07:47;8.10;72.00
5639;DHT22;2841;44.526;11.360;2023-02-01T09:10:14;8.10;72.00
5639;DHT22;2841;44.526;11.360;2023-02-01T09:12:41;8.00;71.90
5639;DHT22;2841;44.526;11.360;2023-02-01T09:15:08;7.90;71.80
5639;DHT22;2841;44.526;11.360;2023-02-01T09:17:35;7.80;71.80
5639;DHT22;2841;44.526;11.360;2023-02-01T09:20:02;7.70;71.90
5639;DHT22;2841;44.526;11.360;2023-02-01T09:22:30;7.60;72.00
5639;DHT22;2841;44.526;11.360;2023-02-01T09:24:57;7.70;72.10
5639;DHT22;2841;44.526;11.360;2023-02-01T09:27:23;7.70;72.10
5639;DHT22;2841;44.526;11.360;2023-02-01T09:29:50;7.70;72.00
5639;DHT22;2841;44.526;11.360;2023-02-01T09:32:18;7.80;72.00
5639;DHT22;2841;44.526;11.360;2023-02-01T09:34:47;7.70;71.90
5639;DHT22;2841;44.526;11.360;2023-02-01T09:37:13;7.80;72.00
5639;DHT22;2841;44.526;11.360;2023-02-01T09:39:42;7.90;72.00
5639;DHT22;2841;44.526;11.360;2023-02-01T09:42:16;8.00;71.90
5639;DHT22;2841;44.526;11.360;2023-02-01T09:44:52;8.00;71.70
5639;DHT22;2841;44.526;11.360;2023-02-01T09:47:24;8.10;71.70
5639;DHT22;2841;44.526;11.360;2023-02-01T09:49:53;8.30;71.80
5639;DHT22;2841;44.526;11.360;2023-02-01T09:52:23;8.40;71.60
5639;DHT22;2841;44.526;11.360;2023-02-01T09:54:54;8.50;71.60
5639;DHT22;2841;44.526;11.360;2023-02-01T09:57:28;8.70;71.60
5639;DHT22;2841;44.526;11.360;2023-02-01T09:59:57;8.70;71.10
5639;DHT22;2841;44.526;11.360;2023-02-01T10:02:26;8.90;71.30
5639;DHT22;2841;44.526;11.360;2023-02-01T10:04:56;9.00;71.00
5639;DHT22;2841;44.526;11.360;2023-02-01T10:07:26;9.00;71.10
5639;DHT22;2841;44.526;11.360;2023-02-01T10:09:59;9.20;71.10
5639;DHT22;2841;44.526;11.360;2023-02-01T10:12:44;9.40;71.00
5639;DHT22;2841;44.526;11.360;2023-02-01T10:15:19;9.50;71.00
5639;DHT22;2841;44.526;11.360;2023-02-01T10:17:52;9.60;70.90
5639;DHT22;2841;44.526;11.360;2023-02-01T10:20:22;9.70;70.60
5639;DHT22;2841;44.526;11.360;2023-02-01T10:22:54;9.80;70.40
5639;DHT22;2841;44.526;11.360;2023-02-01T10:25:26;9.90;70.30
5639;DHT22;2841;44.526;11.360;2023-02-01T10:27:54;9.90;70.30
5639;DHT22;2841;44.526;11.360;2023-02-01T10:30:22;10.00;69.30
5639;DHT22;2841;44.526;11.360;2023-02-01T10:32:50;10.30;69.40
5639;DHT22;2841;44.526;11.360;2023-02-01T10:35:18;10.50;69.30
5639;DHT22;2841;44.526;11.360;2023-02-01T10:37:48;10.70;69.10
5639;DHT22;2841;44.526;11.360;2023-02-01T10:40:17;10.90;69.00
5639;DHT22;2841;44.526;11.360;2023-02-01T10:42:47;11.00;68.60
5639;DHT22;2841;44.526;11.360;2023-02-01T10:45:16;11.10;68.50
5639;DHT22;2841;44.526;11.360;2023-02-01T10:47:43;11.30;68.90
5639;DHT22;2841;44.526;11.360;2023-02-01T10:50:13;11.40;68.60
5639;DHT22;2841;44.526;11.360;2023-02-01T10:52:43;11.50;68.30
5639;DHT22;2841;44.526;11.360;2023-02-01T10:55:25;11.70;68.50
5639;DHT22;2841;44.526;11.360;2023-02-01T10:57:56;11.80;68.40
5639;DHT22;2841;44.526;11.360;2023-02-01T11:00:23;12.80;69.20
5639;DHT22;2841;44.526;11.360;2023-02-01T11:02:50;12.10;68.30
5639;DHT22;2841;44.526;11.360;2023-02-01T11:05:17;12.20;68.10
5639;DHT22;2841;44.526;11.360;2023-02-01T11:07:46;12.30;68.10
5639;DHT22;2841;44.526;11.360;2023-02-01T11:10:33;12.30;67.80
5639;DHT22;2841;44.526;11.360;2023-02-01T11:13:02;12.40;67.70
5639;DHT22;2841;44.526;11.360;2023-02-01T11:15:29;12.40;67.40
5639;DHT22;2841;44.526;11.360;2023-02-01T11:17:56;12.50;67.60
5639;DHT22;2841;44.526;11.360;2023-02-01T11:20:36;12.60;67.70
5639;DHT22;2841;44.526;11.360;2023-02-01T11:23:04;12.80;67.60
5639;DHT22;2841;44.526;11.360;2023-02-01T11:25:31;12.90;67.30
5639;DHT22;2841;44.526;11.360;2023-02-01T11:27:59;13.00;67.20
5639;DHT22;2841;44.526;11.360;2023-02-01T11:30:30;13.00;66.70
5639;DHT22;2841;44.526;11.360;2023-02-01T11:32:57;13.00;66.90
5639;DHT22;2841;44.526;11.360;2023-02-01T11:35:26;13.10;67.00
5639;DHT22;2841;44.526;11.360;2023-02-01T11:37:55;13.20;67.10
5639;DHT22;2841;44.526;11.360;2023-02-01T11:40:26;13.30;67.00
5639;DHT22;2841;44.526;11.360;2023-02-01T11:42:54;13.50;66.90
5639;DHT22;2841;44.526;11.360;2023-02-01T11:45:24;13.50;66.60
5639;DHT22;2841;44.526;11.360;2023-02-01T11:47:53;13.50;66.70
5639;DHT22;2841;44.526;11.360;2023-02-01T11:50:22;13.40;66.50
5639;DHT22;2841;44.526;11.360;2023-02-01T11:53:02;13.50;66.60
5639;DHT22;2841;44.526;11.360;2023-02-01T11:55:36;13.60;66.40
5639;DHT22;2841;44.526;11.360;2023-02-01T11:58:07;13.70;66.40
5639;DHT22;2841;44.526;11.360;2023-02-01T12:00:45;13.70;66.20
5639;DHT22;2841;44.526;11.360;2023-02-01T12:03:32;13.80;66.40
5639;DHT22;2841;44.526;11.360;2023-02-01T12:06:04;13.90;66.20
5639;DHT22;2841;44.526;11.360;2023-02-01T12:08:46;13.90;65.90
5639;DHT22;2841;44.526;11.360;2023-02-01T12:11:19;13.90;65.80
5639;DHT22;2841;44.526;11.360;2023-02-01T12:13:50;14.00;66.60
5639;DHT22;2841;44.526;11.360;2023-02-01T12:16:25;14.00;65.50
5639;DHT22;2841;44.526;11.360;2023-02-01T12:19:01;14.00;65.40
5639;DHT22;2841;44.526;11.360;2023-02-01T12:21:36;13.90;65.00
5639;DHT22;2841;44.526;11.360;2023-02-01T12:24:22;13.90;65.00
5639;DHT22;2841;44.526;11.360;2023-02-01T12:26:54;14.00;65.10
5639;DHT22;2841;44.526;11.360;2023-02-01T12:29:26;14.10;64.80
5639;DHT22;2841;44.526;11.360;2023-02-01T12:32:02;14.20;64.80
5639;DHT22;2841;44.526;11.360;2023-02-01T12:34:38;14.30;64.50
5639;DHT22;2841;44.526;11.360;2023-02-01T12:37:08;14.30;64.50
5639;DHT22;2841;44.526;11.360;2023-02-01T12:39:37;14.30;64.40
5639;DHT22;2841;44.526;11.360;2023-02-01T12:42:08;14.50;64.30
5639;DHT22;2841;44.526;11.360;2023-02-01T12:44:38;14.70;64.10
5639;DHT22;2841;44.526;11.360;2023-02-01T12:47:07;14.80;63.80
5639;DHT22;2841;44.526;11.360;2023-02-01T12:49:44;14.80;63.50
5639;DHT22;2841;44.526;11.360;2023-02-01T12:52:13;14.90;63.80
5639;DHT22;2841;44.526;11.360;2023-02-01T12:54:41;15.00;63.90
5639;DHT22;2841;44.526;11.360;2023-02-01T12:57:10;15.20;64.00
5639;DHT22;2841;44.526;11.360;2023-02-01T12:59:39;15.30;64.10
5639;DHT22;2841;44.526;11.360;2023-02-01T13:02:11;15.50;63.70
5639;DHT22;2841;44.526;11.360;2023-02-01T13:04:40;15.60;63.50
5639;DHT22;2841;44.526;11.360;2023-02-01T13:07:11;15.90;63.30
5639;DHT22;2841;44.526;11.360;2023-02-01T13:09:42;16.10;61.60
5639;DHT22;2841;44.526;11.360;2023-02-01T13:12:11;15.90;61.60
5639;DHT22;2841;44.526;11.360;2023-02-01T13:14:39;15.70;61.80
5639;DHT22;2841;44.526;11.360;2023-02-01T13:17:10;16.10;61.70
5639;DHT22;2841;44.526;11.360;2023-02-01T13:19:40;16.40;61.20
5639;DHT22;2841;44.526;11.360;2023-02-01T13:22:11;16.50;60.90
5639;DHT22;2841;44.526;11.360;2023-02-01T13:24:40;16.40;60.70
5639;DHT22;2841;44.526;11.360;2023-02-01T13:27:10;16.40;61.10
5639;DHT22;2841;44.526;11.360;2023-02-01T13:29:37;17.00;61.50
5639;DHT22;2841;44.526;11.360;2023-02-01T13:32:14;17.60;60.00
5639;DHT22;2841;44.526;11.360;2023-02-01T13:37:36;19.30;58.80
5639;DHT22;2841;44.526;11.360;2023-02-01T13:40:11;19.50;58.30
5639;DHT22;2841;44.526;11.360;2023-02-01T13:42:47;19.60;58.30
5639;DHT22;2841;44.526;11.360;2023-02-01T13:45:16;19.80;58.00
5639;DHT22;2841;44.526;11.360;2023-02-01T13:47:44;19.20;57.70
5639;DHT22;2841;44.526;11.360;2023-02-01T13:50:13;19.20;58.30
5639;DHT22;2841;44.526;11.360;2023-02-01T13:52:50;20.80;56.50
5639;DHT22;2841;44.526;11.360;2023-02-01T13:55:26;22.30;55.40
5639;DHT22;2841;44.526;11.360;2023-02-01T13:57:59;23.50;54.10
5639;DHT22;2841;44.526;11.360;2023-02-01T14:00:27;24.60;53.40
5639;DHT22;2841;44.526;11.360;2023-02-01T14:03:06;24.70;52.90
5639;DHT22;2841;44.526;11.360;2023-02-01T14:08:35;23.10;54.50
5639;DHT22;2841;44.526;11.360;2023-02-01T14:11:03;22.40;54.20
5639;DHT22;2841;44.526;11.360;2023-02-01T14:13:31;22.70;54.20
5639;DHT22;2841;44.526;11.360;2023-02-01T14:16:11;22.40;53.30
5639;DHT22;2841;44.526;11.360;2023-02-01T14:21:25;22.10;56.00
5639;DHT22;2841;44.526;11.360;2023-02-01T14:23:57;24.20;53.40
5639;DHT22;2841;44.526;11.360;2023-02-01T14:26:25;25.20;52.00
5639;DHT22;2841;44.526;11.360;2023-02-01T14:28:53;26.00;52.10
5639;DHT22;2841;44.526;11.360;2023-02-01T14:31:32;24.80;52.00
5639;DHT22;2841;44.526;11.360;2023-02-01T14:34:00;24.00;53.40
5639;DHT22;2841;44.526;11.360;2023-02-01T14:36:38;23.10;53.50
5639;DHT22;2841;44.526;11.360;2023-02-01T14:39:16;21.70;55.40
5639;DHT22;2841;44.526;11.360;2023-02-01T14:41:44;20.30;57.20
5639;DHT22;2841;44.526;11.360;2023-02-01T14:44:13;19.40;58.20
5639;DHT22;2841;44.526;11.360;2023-02-01T14:49:28;19.20;58.30
5639;DHT22;2841;44.526;11.360;2023-02-01T14:51:56;19.80;57.10
5639;DHT22;2841;44.526;11.360;2023-02-01T14:54:27;20.10;56.60
5639;DHT22;2841;44.526;11.360;2023-02-01T14:56:54;20.50;55.90
5639;DHT22;2841;44.526;11.360;2023-02-01T14:59:22;20.60;56.20
5639;DHT22;2841;44.526;11.360;2023-02-01T15:01:50;20.80;55.80
5639;DHT22;2841;44.526;11.360;2023-02-01T15:04:18;21.40;55.60
5639;DHT22;2841;44.526;11.360;2023-02-01T15:06:47;21.70;54.60
5639;DHT22;2841;44.526;11.360;2023-02-01T15:09:16;22.20;54.70
5639;DHT22;2841;44.526;11.360;2023-02-01T15:12:00;22.70;53.80
5639;DHT22;2841;44.526;11.360;2023-02-01T15:14:28;22.20;54.10
5639;DHT22;2841;44.526;11.360;2023-02-01T15:16:55;22.50;54.40
5639;DHT22;2841;44.526;11.360;2023-02-01T15:19:23;23.10;53.30
5639;DHT22;2841;44.526;11.360;2023-02-01T15:21:51;22.60;52.60
5639;DHT22;2841;44.526;11.360;2023-02-01T15:24:21;22.00;53.80
5639;DHT22;2841;44.526;11.360;2023-02-01T15:26:48;21.90;53.80
5639;DHT22;2841;44.526;11.360;2023-02-01T15:29:17;21.50;54.50
5639;DHT22;2841;44.526;11.360;2023-02-01T15:31:45;21.20;54.40
5639;DHT22;2841;44.526;11.360;2023-02-01T15:34:13;21.00;55.10
5639;DHT22;2841;44.526;11.360;2023-02-01T15:36:40;20.90;54.80
5639;DHT22;2841;44.526;11.360;2023-02-01T15:39:17;20.50;55.10
5639;DHT22;2841;44.526;11.360;2023-02-01T15:41:46;19.90;55.50
5639;DHT22;2841;44.526;11.360;2023-02-01T15:44:17;19.10;56.00
5639;DHT22;2841;44.526;11.360;2023-02-01T15:46:45;18.10;56.60
5639;DHT22;2841;44.526;11.360;2023-02-01T15:49:18;16.90;57.50
5639;DHT22;2841;44.526;11.360;2023-02-01T15:51:46;16.00;58.30
5639;DHT22;2841;44.526;11.360;2023-02-01T15:54:16;15.20;58.80
5639;DHT22;2841;44.526;11.360;2023-02-01T15:56:49;14.60;59.20
5639;DHT22;2841;44.526;11.360;2023-02-01T15:59:20;14.10;59.50
5639;DHT22;2841;44.526;11.360;2023-02-01T16:01:47;13.80;59.70
5639;DHT22;2841;44.526;11.360;2023-02-01T16:04:16;13.40;59.70
5639;DHT22;2841;44.526;11.360;2023-02-01T16:06:47;13.10;59.80
5639;DHT22;2841;44.526;11.360;2023-02-01T16:09:15;12.90;59.90
5639;DHT22;2841;44.526;11.360;2023-02-01T16:11:47;12.60;59.90
5639;DHT22;2841;44.526;11.360;2023-02-01T16:14:14;12.40;60.00
5639;DHT22;2841;44.526;11.360;2023-02-01T16:16:42;12.30;60.00
5639;DHT22;2841;44.526;11.360;2023-02-01T16:19:09;12.10;60.00
5639;DHT22;2841;44.526;11.360;2023-02-01T16:21:36;11.90;60.00
5639;DHT22;2841;44.526;11.360;2023-02-01T16:24:03;11.70;60.10
5639;DHT22;2841;44.526;11.360;2023-02-01T16:26:30;11.50;60.10
5639;DHT22;2841;44.526;11.360;2023-02-01T16:28:57;11.30;60.20